createdAt,value
2023-04-01T00:08:12.127Z,98580.44
2023-04-01T00:18:16.483Z,98579.47
2023-04-01T00:28:22.710Z,98566.91
2023-04-01T00:38:26.253Z,98567.75
2023-04-01T00:48:35.391Z,98577.06
2023-04-01T00:58:45.333Z,98577.00
2023-04-01T01:09:12.690Z,98566.88
2023-04-01T01:19:48.990Z,98564.28
2023-04-01T01:30:39.909Z,98572.47
2023-04-01T01:40:52.744Z,98558.38
2023-04-01T01:50:56.535Z,98560.13
2023-04-01T02:01:05.748Z,98564.34
2023-04-01T02:11:12.941Z,98569.34
2023-04-01T02:21:19.327Z,98583.66
2023-04-01T02:31:25.134Z,98575.09
2023-04-01T02:41:30.229Z,98575.91
2023-04-01T02:51:34.318Z,98567.47
2023-04-01T03:01:39.638Z,98562.41
2023-04-01T03:11:43.533Z,98563.47
2023-04-01T03:21:48.640Z,98575.78
2023-04-01T03:31:52.337Z,98578.97
2023-04-01T03:41:57.459Z,98586.47
2023-04-01T03:52:01.249Z,98585.88
2023-04-01T04:02:06.502Z,98578.06
2023-04-01T04:12:10.355Z,98566.19
2023-04-01T04:22:15.344Z,98567.19
2023-04-01T04:32:19.050Z,98554.50
2023-04-01T04:42:24.100Z,98558.69
2023-04-01T04:52:27.754Z,98559.72
2023-04-01T05:02:33.023Z,98563.75
2023-04-01T05:12:38.309Z,98571.41
2023-04-01T05:22:44.668Z,98566.16
2023-04-01T05:32:48.355Z,98557.06
2023-04-01T05:42:53.375Z,98568.88
2023-04-01T05:52:57.163Z,98566.34
2023-04-01T06:03:02.502Z,98565.69
2023-04-01T06:13:10.591Z,98563.09
2023-04-01T06:23:50.711Z,98563.66
2023-04-01T06:34:18.340Z,98577.00
2023-04-01T06:44:34.161Z,98583.94
2023-04-01T06:54:41.478Z,98573.44
2023-04-01T07:04:51.210Z,98574.16
2023-04-01T07:14:57.085Z,98569.06
2023-04-01T07:25:12.518Z,98568.13
2023-04-01T07:35:25.826Z,98590.06
2023-04-01T07:45:36.407Z,98602.97
2023-04-01T07:55:47.939Z,98601.41
2023-04-01T08:06:02.905Z,98619.38
2023-04-01T08:16:15.038Z,98622.22
2023-04-01T08:26:31.298Z,98621.44
2023-04-01T08:36:39.348Z,98616.38
2023-04-01T08:47:07.848Z,98624.69
2023-04-01T08:57:24.217Z,98631.78
2023-04-01T09:07:44.223Z,98635.06
2023-04-01T09:18:26.600Z,98641.81
2023-04-01T09:28:43.817Z,98662.00
2023-04-01T09:38:59.339Z,98666.91
2023-04-01T09:49:29.069Z,98664.72
2023-04-01T10:00:17.909Z,98660.69
2023-04-01T10:11:32.068Z,98669.13
2023-04-01T10:22:25.334Z,98675.13
2023-04-01T10:33:24.739Z,98676.78
2023-04-01T10:44:28.468Z,98677.56
2023-04-01T10:55:04.173Z,98683.63
2023-04-01T11:06:08.430Z,98670.25
2023-04-01T11:16:43.579Z,98676.38
2023-04-01T11:27:02.504Z,98686.59
2023-04-01T11:37:23.110Z,98695.09
2023-04-01T11:48:09.354Z,98683.25
2023-04-01T11:58:37.334Z,98690.81
2023-04-01T12:08:48.827Z,98694.09
2023-04-01T12:18:59.416Z,98701.50
2023-04-01T12:29:21.803Z,98714.16
2023-04-01T12:40:01.215Z,98719.91
2023-04-01T12:50:39.576Z,98746.91
2023-04-01T13:01:27.294Z,98739.38
2023-04-01T13:11:49.580Z,98742.28
2023-04-01T13:22:06.972Z,98751.06
2023-04-01T13:32:33.286Z,98756.34
2023-04-01T13:42:52.552Z,98754.69
2023-04-01T13:53:28.130Z,98760.69
2023-04-01T14:03:58.818Z,98747.81
2023-04-01T14:14:16.492Z,98756.16
2023-04-01T14:24:39.333Z,98746.25
2023-04-01T14:35:01.831Z,98770.94
2023-04-01T14:45:34.034Z,98785.22
2023-04-01T14:55:51.906Z,98776.88
2023-04-01T15:06:29.585Z,98783.72
2023-04-01T15:16:43.764Z,98801.41
2023-04-01T15:27:05.740Z,98805.47
2023-04-01T15:37:20.747Z,98812.34
2023-04-01T15:47:40.638Z,98820.63
2023-04-01T15:58:03.631Z,98843.50
2023-04-01T16:08:49.795Z,98861.06
2023-04-01T16:19:12.815Z,98874.50
2023-04-01T16:29:29.366Z,98872.56
2023-04-01T16:39:44.611Z,98881.88
2023-04-01T16:49:56.532Z,98900.63
2023-04-01T17:00:12.921Z,98918.53
2023-04-01T17:10:44.147Z,98933.38
2023-04-01T17:20:52.753Z,98939.16
2023-04-01T17:31:11.485Z,98961.66
2023-04-01T17:41:27.940Z,98977.59
2023-04-01T17:51:40.466Z,98999.53
2023-04-01T18:01:59.392Z,99026.97
2023-04-01T18:12:16.649Z,99043.72
2023-04-01T18:22:28.188Z,99054.00
2023-04-01T18:32:37.842Z,99083.09
2023-04-01T18:42:53.921Z,99094.41
2023-04-01T18:53:14.206Z,99105.00
2023-04-01T19:03:25.464Z,99123.38
2023-04-01T19:13:40.426Z,99139.19
2023-04-01T19:24:27.961Z,99142.66
2023-04-01T19:34:49.227Z,99155.28
2023-04-01T19:45:09.235Z,99163.06
2023-04-01T19:55:34.899Z,99181.44
2023-04-01T20:05:56.220Z,99183.75
2023-04-01T20:16:08.277Z,99213.19
2023-04-01T20:26:14.605Z,99226.41
2023-04-01T20:36:28.068Z,99239.75
2023-04-01T20:46:50.515Z,99246.59
2023-04-01T20:57:05.729Z,99267.03
2023-04-01T21:07:24.292Z,99270.84
2023-04-01T21:17:44.495Z,99278.50
2023-04-01T21:28:09.701Z,99301.00
2023-04-01T21:38:35.288Z,99327.16
2023-04-01T21:48:55.484Z,99327.94
2023-04-01T21:59:42.111Z,99355.53
2023-04-01T22:09:59.034Z,99367.69
2023-04-01T22:20:21.165Z,99372.47
2023-04-01T22:30:26.962Z,99372.94
2023-04-01T22:40:40.155Z,99387.06
2023-04-01T22:50:52.634Z,99403.72
2023-04-01T23:01:01.445Z,99413.56
2023-04-01T23:11:08.777Z,99415.34
2023-04-01T23:21:20.925Z,99427.25
2023-04-01T23:31:31.901Z,99433.28
2023-04-01T23:41:37.402Z,99451.59
2023-04-01T23:51:53.546Z,99460.84
